sensor_id;sensor_type;location;lat;lon;timestamp;pressure;altitude;pressure_sealevel;temperature;humidity
56671;BME280;42545;50.054;8.306;2023-05-20T00:00:26;100305.34;;;14.68;59.01
56671;BME280;42545;50.054;8.306;2023-05-20T00:02:53;100310.66;;;14.68;59.16
56671;BME280;42545;50.054;8.306;2023-05-20T00:05:19;100302.66;;;14.67;59.17
56671;BME280;42545;50.054;8.306;2023-05-20T00:07:46;100296.47;;;14.66;59.58
56671;BME280;42545;50.054;8.306;2023-05-20T00:10:12;100298.22;;;14.63;59.69
56671;BME280;42545;50.054;8.306;2023-05-20T00:12:40;100307.97;;;14.60;59.92
56671;BME280;42545;50.054;8.306;2023-05-20T00:15:08;100301.75;;;14.58;59.95
56671;BME280;42545;50.054;8.306;2023-05-20T00:17:36;100301.75;;;14.58;60.31
56671;BME280;42545;50.054;8.306;2023-05-20T00:20:03;100301.72;;;14.57;60.63
56671;BME280;42545;50.054;8.306;2023-05-20T00:22:30;100293.75;;;14.55;60.87
56671;BME280;42545;50.054;8.306;2023-05-20T00:24:56;100293.72;;;14.52;61.08
56671;BME280;42545;50.054;8.306;2023-05-20T00:27:23;100292.84;;;14.52;61.30
56671;BME280;42545;50.054;8.306;2023-05-20T00:29:51;100297.25;;;14.50;61.17
56671;BME280;42545;50.054;8.306;2023-05-20T00:32:17;100301.66;;;14.49;61.50
56671;BME280;42545;50.054;8.306;2023-05-20T00:34:44;100304.31;;;14.46;61.59
56671;BME280;42545;50.054;8.306;2023-05-20T00:37:20;100302.53;;;14.43;61.95
56671;BME280;42545;50.054;8.306;2023-05-20T00:39:47;100303.44;;;14.42;62.17
56671;BME280;42545;50.054;8.306;2023-05-20T00:42:18;100307.84;;;14.42;62.11
56671;BME280;42545;50.054;8.306;2023-05-20T00:44:45;100302.53;;;14.40;62.20
56671;BME280;42545;50.054;8.306;2023-05-20T00:47:13;100297.22;;;14.39;62.46
56671;BME280;42545;50.054;8.306;2023-05-20T00:49:40;100294.53;;;14.37;62.54
56671;BME280;42545;50.054;8.306;2023-05-20T00:52:07;100293.66;;;14.37;62.73
56671;BME280;42545;50.054;8.306;2023-05-20T00:54:35;100295.44;;;14.35;62.99
56671;BME280;42545;50.054;8.306;2023-05-20T00:57:02;100296.28;;;14.32;63.28
56671;BME280;42545;50.054;8.306;2023-05-20T00:59:30;100293.63;;;14.29;63.52
56671;BME280;42545;50.054;8.306;2023-05-20T01:01:57;100293.63;;;14.28;63.60
56671;BME280;42545;50.054;8.306;2023-05-20T01:04:25;100290.97;;;14.26;63.83
56671;BME280;42545;50.054;8.306;2023-05-20T01:07:00;100303.31;;;14.22;63.96
56671;BME280;42545;50.054;8.306;2023-05-20T01:09:28;100292.69;;;14.21;64.10
56671;BME280;42545;50.054;8.306;2023-05-20T01:11:59;100295.34;;;14.21;64.23
56671;BME280;42545;50.054;8.306;2023-05-20T01:14:29;100294.47;;;14.19;64.29
56671;BME280;42545;50.054;8.306;2023-05-20T01:17:01;100283.81;;;14.17;64.52
56671;BME280;42545;50.054;8.306;2023-05-20T01:19:39;100289.09;;;14.14;64.63
56671;BME280;42545;50.054;8.306;2023-05-20T01:22:09;100289.97;;;14.10;64.83
56671;BME280;42545;50.054;8.306;2023-05-20T01:24:39;100289.97;;;14.09;65.03
56671;BME280;42545;50.054;8.306;2023-05-20T01:27:07;100286.41;;;14.03;65.01
56671;BME280;42545;50.054;8.306;2023-05-20T01:29:35;100284.59;;;13.99;65.00
56671;BME280;42545;50.054;8.306;2023-05-20T01:32:04;100282.78;;;13.91;65.15
56671;BME280;42545;50.054;8.306;2023-05-20T01:34:32;100274.78;;;13.83;65.46
56671;BME280;42545;50.054;8.306;2023-05-20T01:37:02;100279.16;;;13.76;65.70
56671;BME280;42545;50.054;8.306;2023-05-20T01:39:30;100283.50;;;13.67;65.97
56671;BME280;42545;50.054;8.306;2023-05-20T01:41:59;100285.22;;;13.58;66.22
56671;BME280;42545;50.054;8.306;2023-05-20T01:44:27;100291.34;;;13.51;66.61
56671;BME280;42545;50.054;8.306;2023-05-20T01:46:53;100290.41;;;13.46;66.73
56671;BME280;42545;50.054;8.306;2023-05-20T01:49:20;100284.19;;;13.41;66.68
56671;BME280;42545;50.054;8.306;2023-05-20T01:51:46;100285.88;;;13.34;67.10
56671;BME280;42545;50.054;8.306;2023-05-20T01:54:13;100286.69;;;13.27;67.27
56671;BME280;42545;50.054;8.306;2023-05-20T01:56:39;100278.66;;;13.21;67.62
56671;BME280;42545;50.054;8.306;2023-05-20T01:59:07;100277.75;;;13.16;67.70
56671;BME280;42545;50.054;8.306;2023-05-20T02:01:34;100272.38;;;13.10;68.11
56671;BME280;42545;50.054;8.306;2023-05-20T02:04:01;100275.88;;;13.04;68.58
56671;BME280;42545;50.054;8.306;2023-05-20T02:06:27;100273.19;;;13.01;68.47
56671;BME280;42545;50.054;8.306;2023-05-20T02:08:54;100273.16;;;12.96;68.76
56671;BME280;42545;50.054;8.306;2023-05-20T02:11:20;100269.59;;;12.93;69.18
56671;BME280;42545;50.054;8.306;2023-05-20T02:13:48;100264.22;;;12.88;69.11
56671;BME280;42545;50.054;8.306;2023-05-20T02:16:16;100264.19;;;12.85;69.52
56671;BME280;42545;50.054;8.306;2023-05-20T02:18:42;100272.13;;;12.82;69.79
56671;BME280;42545;50.054;8.306;2023-05-20T02:21:09;100268.53;;;12.77;69.93
56671;BME280;42545;50.054;8.306;2023-05-20T02:23:36;100259.63;;;12.72;70.22
56671;BME280;42545;50.054;8.306;2023-05-20T02:26:02;100263.13;;;12.67;70.35
56671;BME280;42545;50.054;8.306;2023-05-20T02:28:29;100267.50;;;12.64;70.77
56671;BME280;42545;50.054;8.306;2023-05-20T02:30:55;100266.59;;;12.60;70.99
56671;BME280;42545;50.054;8.306;2023-05-20T02:33:23;100273.63;;;12.58;71.40
56671;BME280;42545;50.054;8.306;2023-05-20T02:35:52;100267.44;;;12.56;71.57
56671;BME280;42545;50.054;8.306;2023-05-20T02:38:18;100270.91;;;12.54;71.36
56671;BME280;42545;50.054;8.306;2023-05-20T02:40:45;100267.34;;;12.50;71.66
56671;BME280;42545;50.054;8.306;2023-05-20T02:43:11;100263.78;;;12.48;72.30
56671;BME280;42545;50.054;8.306;2023-05-20T02:45:38;100261.09;;;12.46;72.66
56671;BME280;42545;50.054;8.306;2023-05-20T02:48:04;100268.16;;;12.44;72.66
56671;BME280;42545;50.054;8.306;2023-05-20T02:50:32;100269.00;;;12.42;72.98
56671;BME280;42545;50.054;8.306;2023-05-20T02:52:58;100271.66;;;12.42;73.03
56671;BME280;42545;50.054;8.306;2023-05-20T02:55:25;100266.38;;;12.42;73.09
56671;BME280;42545;50.054;8.306;2023-05-20T02:57:52;100256.63;;;12.41;73.32
56671;BME280;42545;50.054;8.306;2023-05-20T03:00:18;100261.94;;;12.41;73.21
56671;BME280;42545;50.054;8.306;2023-05-20T03:02:46;100263.72;;;12.42;73.38
56671;BME280;42545;50.054;8.306;2023-05-20T03:05:13;100268.13;;;12.41;73.45
56671;BME280;42545;50.054;8.306;2023-05-20T03:07:41;100269.88;;;12.41;73.73
56671;BME280;42545;50.054;8.306;2023-05-20T03:10:08;100252.25;;;12.41;73.67
56671;BME280;42545;50.054;8.306;2023-05-20T03:12:34;100254.00;;;12.42;73.46
56671;BME280;42545;50.054;8.306;2023-05-20T03:15:01;100250.50;;;12.42;73.91
56671;BME280;42545;50.054;8.306;2023-05-20T03:17:27;100252.28;;;12.44;73.74
56671;BME280;42545;50.054;8.306;2023-05-20T03:19:54;100245.22;;;12.43;73.89
56671;BME280;42545;50.054;8.306;2023-05-20T03:22:21;100254.91;;;12.43;73.89
56671;BME280;42545;50.054;8.306;2023-05-20T03:24:49;100247.81;;;12.40;74.09
56671;BME280;42545;50.054;8.306;2023-05-20T03:27:16;100249.59;;;12.41;74.15
56671;BME280;42545;50.054;8.306;2023-05-20T03:29:43;100231.00;;;12.35;74.40
56671;BME280;42545;50.054;8.306;2023-05-20T03:32:10;100240.75;;;12.41;74.41
56671;BME280;42545;50.054;8.306;2023-05-20T03:34:36;100244.31;;;12.41;74.74
56671;BME280;42545;50.054;8.306;2023-05-20T03:37:03;100247.84;;;12.42;74.67
56671;BME280;42545;50.054;8.306;2023-05-20T03:39:30;100239.91;;;12.42;74.82
56671;BME280;42545;50.054;8.306;2023-05-20T03:41:58;100234.63;;;12.42;74.76
56671;BME280;42545;50.054;8.306;2023-05-20T03:44:24;100234.63;;;12.43;75.07
56671;BME280;42545;50.054;8.306;2023-05-20T03:46:51;100236.38;;;12.44;75.20
56671;BME280;42545;50.054;8.306;2023-05-20T03:49:17;100239.94;;;12.43;75.50
56671;BME280;42545;50.054;8.306;2023-05-20T03:51:44;100239.06;;;12.46;75.75
56671;BME280;42545;50.054;8.306;2023-05-20T03:54:10;100240.81;;;12.45;75.63
56671;BME280;42545;50.054;8.306;2023-05-20T03:56:37;100240.84;;;12.47;75.59
56671;BME280;42545;50.054;8.306;2023-05-20T03:59:05;100246.16;;;12.48;75.57
56671;BME280;42545;50.054;8.306;2023-05-20T04:01:31;100240.88;;;12.48;75.77
56671;BME280;42545;50.054;8.306;2023-05-20T04:03:58;100243.53;;;12.48;75.77
56671;BME280;42545;50.054;8.306;2023-05-20T04:06:25;100232.03;;;12.48;75.85
56671;BME280;42545;50.054;8.306;2023-05-20T04:08:51;100232.91;;;12.47;75.84
56671;BME280;42545;50.054;8.306;2023-05-20T04:11:18;100237.28;;;12.46;76.28
56671;BME280;42545;50.054;8.306;2023-05-20T04:13:45;100232.00;;;12.45;76.11
56671;BME280;42545;50.054;8.306;2023-05-20T04:16:13;100232.84;;;12.42;76.46
56671;BME280;42545;50.054;8.306;2023-05-20T04:18:40;100235.47;;;12.41;76.42
56671;BME280;42545;50.054;8.306;2023-05-20T04:21:06;100238.09;;;12.39;76.77
56671;BME280;42545;50.054;8.306;2023-05-20T04:23:33;100241.59;;;12.37;76.60
56671;BME280;42545;50.054;8.306;2023-05-20T04:25:59;100237.16;;;12.36;77.29
56671;BME280;42545;50.054;8.306;2023-05-20T04:28:27;100244.19;;;12.34;77.40
56671;BME280;42545;50.054;8.306;2023-05-20T04:30:59;100244.19;;;12.34;77.30
56671;BME280;42545;50.054;8.306;2023-05-20T04:33:28;100245.09;;;12.33;77.54
56671;BME280;42545;50.054;8.306;2023-05-20T04:35:55;100248.56;;;12.30;77.62
56671;BME280;42545;50.054;8.306;2023-05-20T04:38:23;100244.19;;;12.30;77.91
56671;BME280;42545;50.054;8.306;2023-05-20T04:40:54;100247.69;;;12.29;77.87
56671;BME280;42545;50.054;8.306;2023-05-20T04:43:22;100250.38;;;12.33;77.94
56671;BME280;42545;50.054;8.306;2023-05-20T04:45:48;100245.97;;;12.33;78.18
56671;BME280;42545;50.054;8.306;2023-05-20T04:48:15;100245.09;;;12.34;78.25
56671;BME280;42545;50.054;8.306;2023-05-20T04:50:43;100246.88;;;12.35;78.60
56671;BME280;42545;50.054;8.306;2023-05-20T04:53:10;100241.63;;;12.38;78.53
56671;BME280;42545;50.054;8.306;2023-05-20T04:55:36;100240.75;;;12.41;78.87
56671;BME280;42545;50.054;8.306;2023-05-20T04:58:04;100239.91;;;12.42;78.92
56671;BME280;42545;50.054;8.306;2023-05-20T05:00:32;100236.38;;;12.43;78.80
56671;BME280;42545;50.054;8.306;2023-05-20T05:02:59;100232.88;;;12.45;78.86
56671;BME280;42545;50.054;8.306;2023-05-20T05:05:27;100232.88;;;12.45;79.00
56671;BME280;42545;50.054;8.306;2023-05-20T05:07:54;100232.94;;;12.48;79.12
56671;BME280;42545;50.054;8.306;2023-05-20T05:10:21;100232.94;;;12.52;79.21
56671;BME280;42545;50.054;8.306;2023-05-20T05:12:49;100223.28;;;12.55;79.14
56671;BME280;42545;50.054;8.306;2023-05-20T05:15:15;100221.56;;;12.59;79.57
56671;BME280;42545;50.054;8.306;2023-05-20T05:17:42;100219.84;;;12.62;79.62
56671;BME280;42545;50.054;8.306;2023-05-20T05:20:09;100218.13;;;12.67;79.58
56671;BME280;42545;50.054;8.306;2023-05-20T05:22:35;100218.16;;;12.71;79.31
56671;BME280;42545;50.054;8.306;2023-05-20T05:25:06;100216.44;;;12.76;79.68
56671;BME280;42545;50.054;8.306;2023-05-20T05:27:33;100217.34;;;12.79;79.48
56671;BME280;42545;50.054;8.306;2023-05-20T05:30:00;100212.97;;;12.83;79.37
56671;BME280;42545;50.054;8.306;2023-05-20T05:32:27;100207.72;;;12.87;79.33
56671;BME280;42545;50.054;8.306;2023-05-20T05:34:53;100206.88;;;12.92;79.19
56671;BME280;42545;50.054;8.306;2023-05-20T05:37:20;100203.38;;;12.96;79.22
56671;BME280;42545;50.054;8.306;2023-05-20T05:39:47;100206.97;;;13.01;78.88
56671;BME280;42545;50.054;8.306;2023-05-20T05:42:15;100213.19;;;13.06;79.29
56671;BME280;42545;50.054;8.306;2023-05-20T05:44:41;100209.72;;;13.12;79.07
56671;BME280;42545;50.054;8.306;2023-05-20T05:47:08;100211.53;;;13.19;79.02
56671;BME280;42545;50.054;8.306;2023-05-20T05:49:35;100212.47;;;13.25;78.81
56671;BME280;42545;50.054;8.306;2023-05-20T05:52:01;100209.03;;;13.33;79.02
56671;BME280;42545;50.054;8.306;2023-05-20T05:54:28;100205.56;;;13.40;78.68
56671;BME280;42545;50.054;8.306;2023-05-20T05:56:54;100203.81;;;13.46;78.63
56671;BME280;42545;50.054;8.306;2023-05-20T05:59:23;100205.59;;;13.51;78.07
56671;BME280;42545;50.054;8.306;2023-05-20T06:01:49;100195.06;;;13.55;77.89
56671;BME280;42545;50.054;8.306;2023-05-20T06:04:16;100200.41;;;13.60;78.21
56671;BME280;42545;50.054;8.306;2023-05-20T06:06:42;100201.28;;;13.62;77.74
56671;BME280;42545;50.054;8.306;2023-05-20T06:09:09;100199.56;;;13.65;77.61
56671;BME280;42545;50.054;8.306;2023-05-20T06:11:35;100203.09;;;13.69;77.77
56671;BME280;42545;50.054;8.306;2023-05-20T06:14:02;100207.53;;;13.73;77.65
56671;BME280;42545;50.054;8.306;2023-05-20T06:16:30;100203.16;;;13.78;77.54
56671;BME280;42545;50.054;8.306;2023-05-20T06:18:56;100199.66;;;13.84;77.92
56671;BME280;42545;50.054;8.306;2023-05-20T06:21:23;100206.75;;;13.91;77.78
56671;BME280;42545;50.054;8.306;2023-05-20T06:23:50;100202.34;;;13.98;77.54
56671;BME280;42545;50.054;8.306;2023-05-20T06:26:16;100202.41;;;14.06;77.41
56671;BME280;42545;50.054;8.306;2023-05-20T06:28:42;100198.91;;;14.16;77.65
56671;BME280;42545;50.054;8.306;2023-05-20T06:31:09;100202.47;;;14.22;76.53
56671;BME280;42545;50.054;8.306;2023-05-20T06:33:37;100201.63;;;14.31;76.28
56671;BME280;42545;50.054;8.306;2023-05-20T06:36:04;100197.19;;;14.38;75.51
56671;BME280;42545;50.054;8.306;2023-05-20T06:38:30;100203.41;;;14.43;75.32
56671;BME280;42545;50.054;8.306;2023-05-20T06:40:57;100195.47;;;14.46;74.27
56671;BME280;42545;50.054;8.306;2023-05-20T06:43:23;100200.78;;;14.48;74.18
56671;BME280;42545;50.054;8.306;2023-05-20T06:45:50;100186.63;;;14.50;74.15
56671;BME280;42545;50.054;8.306;2023-05-20T06:48:16;100194.59;;;14.53;74.29
56671;BME280;42545;50.054;8.306;2023-05-20T06:50:44;100189.28;;;14.56;74.20
56671;BME280;42545;50.054;8.306;2023-05-20T06:53:11;100192.00;;;14.61;74.28
56671;BME280;42545;50.054;8.306;2023-05-20T06:55:37;100188.47;;;14.67;73.92
56671;BME280;42545;50.054;8.306;2023-05-20T06:58:04;100195.53;;;14.71;74.34
56671;BME280;42545;50.054;8.306;2023-05-20T07:00:31;100192.03;;;14.73;74.31
56671;BME280;42545;50.054;8.306;2023-05-20T07:02:57;100192.03;;;14.73;73.17
56671;BME280;42545;50.054;8.306;2023-05-20T07:05:24;100192.91;;;14.72;73.17
56671;BME280;42545;50.054;8.306;2023-05-20T07:07:54;100191.13;;;14.73;73.48
56671;BME280;42545;50.054;8.306;2023-05-20T07:10:20;100190.25;;;14.74;73.27
56671;BME280;42545;50.054;8.306;2023-05-20T07:12:47;100192.03;;;14.75;73.00
56671;BME280;42545;50.054;8.306;2023-05-20T07:15:14;100178.72;;;14.69;73.22
56671;BME280;42545;50.054;8.306;2023-05-20T07:17:40;100192.94;;;14.78;73.60
56671;BME280;42545;50.054;8.306;2023-05-20T07:20:07;100192.91;;;14.83;73.34
56671;BME280;42545;50.054;8.306;2023-05-20T07:22:34;100186.72;;;14.92;73.28
56671;BME280;42545;50.054;8.306;2023-05-20T07:25:02;100179.66;;;14.97;73.41
56671;BME280;42545;50.054;8.306;2023-05-20T07:27:29;100183.19;;;15.05;73.08
56671;BME280;42545;50.054;8.306;2023-05-20T07:29:55;100181.41;;;15.09;72.85
56671;BME280;42545;50.054;8.306;2023-05-20T07:32:22;100171.66;;;15.11;73.23
56671;BME280;42545;50.054;8.306;2023-05-20T07:34:48;100175.22;;;15.28;73.13
56671;BME280;42545;50.054;8.306;2023-05-20T07:37:17;100173.41;;;15.36;72.30
56671;BME280;42545;50.054;8.306;2023-05-20T07:39:43;100167.19;;;15.44;71.85
56671;BME280;42545;50.054;8.306;2023-05-20T07:42:11;100174.28;;;15.48;71.60
56671;BME280;42545;50.054;8.306;2023-05-20T07:44:38;100169.88;;;15.48;71.60
56671;BME280;42545;50.054;8.306;2023-05-20T07:47:04;100173.41;;;15.47;71.33
56671;BME280;42545;50.054;8.306;2023-05-20T07:49:31;100164.56;;;15.47;71.33
56671;BME280;42545;50.054;8.306;2023-05-20T07:51:58;100162.75;;;15.46;71.25
56671;BME280;42545;50.054;8.306;2023-05-20T07:54:25;100160.09;;;15.46;70.68
56671;BME280;42545;50.054;8.306;2023-05-20T07:56:52;100160.97;;;15.48;71.15
56671;BME280;42545;50.054;8.306;2023-05-20T07:59:19;100150.34;;;15.52;71.13
56671;BME280;42545;50.054;8.306;2023-05-20T08:01:46;100150.34;;;15.57;71.27
56671;BME280;42545;50.054;8.306;2023-05-20T08:04:13;100154.75;;;15.69;71.54
56671;BME280;42545;50.054;8.306;2023-05-20T08:06:39;100158.31;;;15.75;70.95
56671;BME280;42545;50.054;8.306;2023-05-20T08:09:07;100160.06;;;15.76;70.69
56671;BME280;42545;50.054;8.306;2023-05-20T08:11:34;100156.53;;;15.78;70.36
56671;BME280;42545;50.054;8.306;2023-05-20T08:14:01;100154.75;;;15.78;70.17
56671;BME280;42545;50.054;8.306;2023-05-20T08:16:29;100149.44;;;15.80;70.18
56671;BME280;42545;50.054;8.306;2023-05-20T08:18:55;100147.63;;;15.82;70.54
56671;BME280;42545;50.054;8.306;2023-05-20T08:21:22;100150.31;;;15.85;70.46
56671;BME280;42545;50.054;8.306;2023-05-20T08:23:48;100144.06;;;15.92;70.57
56671;BME280;42545;50.054;8.306;2023-05-20T08:26:16;100148.44;;;16.01;70.01
56671;BME280;42545;50.054;8.306;2023-05-20T08:28:43;100151.09;;;16.08;69.01
56671;BME280;42545;50.054;8.306;2023-05-20T08:31:09;100138.63;;;16.17;69.78
56671;BME280;42545;50.054;8.306;2023-05-20T08:33:37;100139.44;;;16.29;69.85
56671;BME280;42545;50.054;8.306;2023-05-20T08:36:04;100149.09;;;16.44;70.54
56671;BME280;42545;50.054;8.306;2023-05-20T08:38:30;100141.91;;;16.57;69.00
56671;BME280;42545;50.054;8.306;2023-05-20T08:40:57;100147.19;;;16.66;68.86
56671;BME280;42545;50.054;8.306;2023-05-20T08:43:24;100149.75;;;16.82;68.33
56671;BME280;42545;50.054;8.306;2023-05-20T08:45:50;100146.97;;;16.96;67.31
56671;BME280;42545;50.054;8.306;2023-05-20T08:48:17;100130.88;;;17.09;67.01
56671;BME280;42545;50.054;8.306;2023-05-20T08:50:49;100127.16;;;17.31;67.01
56671;BME280;42545;50.054;8.306;2023-05-20T08:53:16;100133.25;;;17.42;65.28
56671;BME280;42545;50.054;8.306;2023-05-20T08:55:45;100126.09;;;17.47;64.52
56671;BME280;42545;50.054;8.306;2023-05-20T08:58:12;100116.28;;;17.47;65.13
56671;BME280;42545;50.054;8.306;2023-05-20T09:00:39;100132.16;;;17.60;66.16
56671;BME280;42545;50.054;8.306;2023-05-20T09:03:06;100131.13;;;17.72;65.61
56671;BME280;42545;50.054;8.306;2023-05-20T09:05:33;100127.47;;;17.82;64.33
56671;BME280;42545;50.054;8.306;2023-05-20T09:08:08;100139.97;;;17.78;64.92
56671;BME280;42545;50.054;8.306;2023-05-20T09:10:36;100140.94;;;17.71;64.76
56671;BME280;42545;50.054;8.306;2023-05-20T09:13:03;100141.91;;;17.62;64.80
56671;BME280;42545;50.054;8.306;2023-05-20T09:15:30;100146.31;;;17.65;64.98
56671;BME280;42545;50.054;8.306;2023-05-20T09:17:58;100142.75;;;17.69;65.18
56671;BME280;42545;50.054;8.306;2023-05-20T09:20:26;100136.56;;;17.65;64.65
56671;BME280;42545;50.054;8.306;2023-05-20T09:22:58;100141.78;;;17.73;64.54
56671;BME280;42545;50.054;8.306;2023-05-20T09:25:27;100141.72;;;17.79;64.54
56671;BME280;42545;50.054;8.306;2023-05-20T09:27:54;100139.00;;;17.87;63.30
56671;BME280;42545;50.054;8.306;2023-05-20T09:30:21;100141.63;;;17.90;63.63
56671;BME280;42545;50.054;8.306;2023-05-20T09:32:52;100137.94;;;18.00;63.35
56671;BME280;42545;50.054;8.306;2023-05-20T09:35:20;100129.81;;;18.10;63.34
56671;BME280;42545;50.054;8.306;2023-05-20T09:37:46;100142.31;;;18.08;62.60
56671;BME280;42545;50.054;8.306;2023-05-20T09:40:14;100130.69;;;18.09;62.26
56671;BME280;42545;50.054;8.306;2023-05-20T09:42:48;100138.69;;;18.12;62.62
56671;BME280;42545;50.054;8.306;2023-05-20T09:45:16;100121.78;;;18.11;62.55
56671;BME280;42545;50.054;8.306;2023-05-20T09:47:43;100120.00;;;18.12;63.54
56671;BME280;42545;50.054;8.306;2023-05-20T09:50:11;100118.03;;;18.23;63.90
56671;BME280;42545;50.054;8.306;2023-05-20T09:52:39;100124.88;;;18.44;62.75
56671;BME280;42545;50.054;8.306;2023-05-20T09:55:07;100130.94;;;18.55;62.17
56671;BME280;42545;50.054;8.306;2023-05-20T09:57:36;100122.81;;;18.61;61.97
56671;BME280;42545;50.054;8.306;2023-05-20T10:00:05;100116.31;;;18.81;61.93
56671;BME280;42545;50.054;8.306;2023-05-20T10:02:33;100113.31;;;19.01;60.94
56671;BME280;42545;50.054;8.306;2023-05-20T10:05:03;100116.78;;;19.06;59.61
56671;BME280;42545;50.054;8.306;2023-05-20T10:07:45;100110.50;;;19.09;59.36
56671;BME280;42545;50.054;8.306;2023-05-20T10:10:26;100107.00;;;19.04;59.53
56671;BME280;42545;50.054;8.306;2023-05-20T10:13:14;100113.34;;;18.98;59.77
56671;BME280;42545;50.054;8.306;2023-05-20T10:15:54;100106.47;;;18.83;59.49
56671;BME280;42545;50.054;8.306;2023-05-20T10:18:35;100114.63;;;18.74;60.56
56671;BME280;42545;50.054;8.306;2023-05-20T10:21:14;100101.44;;;18.61;60.56
56671;BME280;42545;50.054;8.306;2023-05-20T10:23:41;100113.94;;;18.59;60.40
56671;BME280;42545;50.054;8.306;2023-05-20T10:26:07;100113.94;;;18.61;61.44
56671;BME280;42545;50.054;8.306;2023-05-20T10:28:35;100110.41;;;18.59;61.37
56671;BME280;42545;50.054;8.306;2023-05-20T10:31:14;100106.75;;;18.64;61.20
56671;BME280;42545;50.054;8.306;2023-05-20T10:33:41;100102.38;;;18.60;60.65
56671;BME280;42545;50.054;8.306;2023-05-20T10:36:08;100109.53;;;18.57;60.67
56671;BME280;42545;50.054;8.306;2023-05-20T10:38:35;100114.94;;;18.54;61.12
56671;BME280;42545;50.054;8.306;2023-05-20T10:41:08;100117.50;;;18.60;61.81
56671;BME280;42545;50.054;8.306;2023-05-20T10:43:35;100114.78;;;18.63;61.55
56671;BME280;42545;50.054;8.306;2023-05-20T10:46:03;100111.91;;;18.77;61.25
56671;BME280;42545;50.054;8.306;2023-05-20T10:48:31;100099.31;;;18.85;60.88
56671;BME280;42545;50.054;8.306;2023-05-20T10:50:59;100108.25;;;18.84;60.72
56671;BME280;42545;50.054;8.306;2023-05-20T10:53:28;100094.88;;;18.86;60.77
56671;BME280;42545;50.054;8.306;2023-05-20T10:56:03;100091.09;;;18.96;61.67
56671;BME280;42545;50.054;8.306;2023-05-20T10:58:36;100078.41;;;19.09;60.40
56671;BME280;42545;50.054;8.306;2023-05-20T11:01:04;100074.69;;;19.16;60.37
56671;BME280;42545;50.054;8.306;2023-05-20T11:03:32;100066.66;;;19.17;60.20
56671;BME280;42545;50.054;8.306;2023-05-20T11:06:00;100073.69;;;19.23;59.46
56671;BME280;42545;50.054;8.306;2023-05-20T11:08:28;100074.63;;;19.20;59.24
56671;BME280;42545;50.054;8.306;2023-05-20T11:10:56;100062.28;;;19.13;59.03
56671;BME280;42545;50.054;8.306;2023-05-20T11:13:23;100055.16;;;19.12;59.16
56671;BME280;42545;50.054;8.306;2023-05-20T11:15:50;100056.81;;;19.19;59.01
56671;BME280;42545;50.054;8.306;2023-05-20T11:18:18;100043.28;;;19.27;58.08
56671;BME280;42545;50.054;8.306;2023-05-20T11:20:45;100034.03;;;19.44;58.08
56671;BME280;42545;50.054;8.306;2023-05-20T11:23:13;100036.38;;;19.61;58.21
56671;BME280;42545;50.054;8.306;2023-05-20T11:25:41;100040.59;;;19.74;58.26
56671;BME280;42545;50.054;8.306;2023-05-20T11:28:08;100031.47;;;19.83;56.86
56671;BME280;42545;50.054;8.306;2023-05-20T11:30:35;100045.56;;;19.91;56.60
56671;BME280;42545;50.054;8.306;2023-05-20T11:33:03;100027.84;;;19.85;55.98
56671;BME280;42545;50.054;8.306;2023-05-20T11:35:31;100039.13;;;20.00;56.86
56671;BME280;42545;50.054;8.306;2023-05-20T11:38:01;100043.25;;;20.14;55.98
56671;BME280;42545;50.054;8.306;2023-05-20T11:40:30;100041.53;;;20.12;53.66
56671;BME280;42545;50.054;8.306;2023-05-20T11:42:58;100040.81;;;20.04;55.38
56671;BME280;42545;50.054;8.306;2023-05-20T11:45:25;100049.78;;;20.03;56.15
56671;BME280;42545;50.054;8.306;2023-05-20T11:48:00;100051.69;;;19.97;54.58
56671;BME280;42545;50.054;8.306;2023-05-20T11:50:27;100041.22;;;19.85;55.26
56671;BME280;42545;50.054;8.306;2023-05-20T11:52:57;100040.41;;;19.82;55.19
56671;BME280;42545;50.054;8.306;2023-05-20T11:55:25;100045.94;;;19.74;55.31
56671;BME280;42545;50.054;8.306;2023-05-20T11:57:51;100031.78;;;19.66;55.27
56671;BME280;42545;50.054;8.306;2023-05-20T12:00:18;100029.13;;;19.66;55.19
56671;BME280;42545;50.054;8.306;2023-05-20T12:02:45;100020.06;;;19.73;56.21
56671;BME280;42545;50.054;8.306;2023-05-20T12:05:12;100017.94;;;19.89;56.68
56671;BME280;42545;50.054;8.306;2023-05-20T12:07:39;100026.53;;;20.05;56.70
56671;BME280;42545;50.054;8.306;2023-05-20T12:10:08;100021.78;;;20.16;55.60
56671;BME280;42545;50.054;8.306;2023-05-20T12:12:35;100030.41;;;20.29;55.72
56671;BME280;42545;50.054;8.306;2023-05-20T12:15:02;100023.88;;;20.41;55.50
56671;BME280;42545;50.054;8.306;2023-05-20T12:17:28;100018.38;;;20.47;54.85
56671;BME280;42545;50.054;8.306;2023-05-20T12:19:55;100022.28;;;20.33;53.88
56671;BME280;42545;50.054;8.306;2023-05-20T12:22:21;100015.47;;;20.19;54.48
56671;BME280;42545;50.054;8.306;2023-05-20T12:24:48;100017.50;;;20.09;54.93
56671;BME280;42545;50.054;8.306;2023-05-20T12:27:16;100023.75;;;20.08;54.99
56671;BME280;42545;50.054;8.306;2023-05-20T12:29:43;100019.19;;;20.11;55.57
56671;BME280;42545;50.054;8.306;2023-05-20T12:32:10;100019.19;;;20.11;53.87
56671;BME280;42545;50.054;8.306;2023-05-20T12:34:36;100011.16;;;20.11;55.18
56671;BME280;42545;50.054;8.306;2023-05-20T12:37:03;100010.19;;;20.15;55.58
56671;BME280;42545;50.054;8.306;2023-05-20T12:39:30;100019.78;;;20.24;55.54
56671;BME280;42545;50.054;8.306;2023-05-20T12:41:57;100010.75;;;20.30;54.68
56671;BME280;42545;50.054;8.306;2023-05-20T12:44:25;100020.66;;;20.26;54.55
56671;BME280;42545;50.054;8.306;2023-05-20T12:46:53;100009.25;;;20.16;54.32
56671;BME280;42545;50.054;8.306;2023-05-20T12:49:20;100015.91;;;20.00;55.23
56671;BME280;42545;50.054;8.306;2023-05-20T12:51:46;100005.56;;;19.85;55.11